createdAt,value
2022-10-17T00:01:24.907Z,101332.19
2022-10-17T00:04:47.844Z,101330.66
2022-10-17T00:08:12.798Z,101336.03
2022-10-17T00:11:37.861Z,101324.88
2022-10-17T00:15:01.803Z,101316.28
2022-10-17T00:18:25.820Z,101322.88
2022-10-17T00:21:48.828Z,101319.63
2022-10-17T00:25:12.826Z,101313.06
2022-10-17T00:28:36.033Z,101310.44
2022-10-17T00:32:00.893Z,101310.94
2022-10-17T00:35:24.950Z,101299.75
2022-10-17T00:38:48.831Z,101298.44
2022-10-17T00:42:12.859Z,101298.44
2022-10-17T00:45:38.857Z,101307.34
2022-10-17T00:49:23.900Z,101311.94
2022-10-17T00:52:47.918Z,101312.28
2022-10-17T00:56:14.836Z,101311.81
2022-10-17T00:59:38.872Z,101306.91
2022-10-17T01:03:03.842Z,101309.84
2022-10-17T01:06:27.867Z,101307.16
2022-10-17T01:09:50.842Z,101300.25
2022-10-17T01:13:22.874Z,101301.69
2022-10-17T01:17:06.838Z,101309.50
2022-10-17T01:20:53.889Z,101309.50
2022-10-17T01:24:25.436Z,101308.97
2022-10-17T01:28:25.996Z,101314.91
2022-10-17T01:32:14.849Z,101316.41
2022-10-17T01:35:46.896Z,101316.00
2022-10-17T01:39:21.875Z,101300.47
2022-10-17T01:43:06.996Z,101299.59
2022-10-17T01:46:41.846Z,101288.38
2022-10-17T01:50:06.891Z,101294.22
2022-10-17T01:53:51.879Z,101281.56
2022-10-17T01:57:20.979Z,101292.72
2022-10-17T02:00:45.922Z,101292.81
2022-10-17T02:04:11.917Z,101293.50
2022-10-17T02:07:35.886Z,101281.81
2022-10-17T02:11:08.883Z,101278.94
2022-10-17T02:14:43.911Z,101269.72
2022-10-17T02:18:42.898Z,101268.47
2022-10-17T02:22:40.911Z,101263.09
2022-10-17T02:26:31.920Z,101271.97
2022-10-17T02:30:04.920Z,101259.50
2022-10-17T02:33:48.000Z,101265.31
2022-10-17T02:37:14.910Z,101254.78
2022-10-17T02:40:38.007Z,101261.91
2022-10-17T02:44:03.878Z,101265.81
2022-10-17T02:47:28.914Z,101256.22
2022-10-17T02:51:02.938Z,101251.06
2022-10-17T02:54:27.961Z,101240.16
2022-10-17T02:57:55.027Z,101253.63
2022-10-17T03:01:19.015Z,101250.50
2022-10-17T03:04:42.013Z,101249.25
2022-10-17T03:08:07.915Z,101246.59
2022-10-17T03:11:32.046Z,101238.59
2022-10-17T03:14:57.972Z,101232.53
2022-10-17T03:18:20.946Z,101227.03
2022-10-17T03:21:49.971Z,101222.28
2022-10-17T03:25:13.942Z,101223.13
2022-10-17T03:28:38.945Z,101214.69
2022-10-17T03:31:56.945Z,101215.78
2022-10-17T03:35:20.913Z,101208.91
2022-10-17T03:38:45.933Z,101212.56
2022-10-17T03:42:08.905Z,101197.38
2022-10-17T03:45:31.951Z,101186.81
2022-10-17T03:48:54.899Z,101195.53
2022-10-17T03:52:18.014Z,101199.91
2022-10-17T03:55:41.915Z,101197.81
2022-10-17T03:59:04.961Z,101198.44
2022-10-17T04:02:28.910Z,101188.09
2022-10-17T04:05:51.968Z,101192.25
2022-10-17T04:09:16.891Z,101185.84
2022-10-17T04:12:48.929Z,101198.31
2022-10-17T04:16:15.943Z,101193.50
2022-10-17T04:19:47.934Z,101190.41
2022-10-17T04:23:13.974Z,101183.28
2022-10-17T04:26:38.945Z,101179.63
2022-10-17T04:30:04.977Z,101195.50
2022-10-17T04:33:29.929Z,101205.25
2022-10-17T04:36:54.965Z,101193.47
2022-10-17T04:40:19.972Z,101195.47
2022-10-17T04:43:46.901Z,101204.75
2022-10-17T04:47:14.966Z,101207.03
2022-10-17T04:50:38.941Z,101198.75
2022-10-17T04:54:21.961Z,101209.69
2022-10-17T04:57:53.985Z,101215.13
2022-10-17T05:01:29.942Z,101213.75
2022-10-17T05:04:53.975Z,101221.34
2022-10-17T05:08:17.900Z,101215.97
2022-10-17T05:11:43.973Z,101216.16
2022-10-17T05:15:07.956Z,101225.50
2022-10-17T05:18:30.996Z,101218.44
2022-10-17T05:21:54.980Z,101211.38
2022-10-17T05:25:19.985Z,101210.53
2022-10-17T05:28:45.055Z,101211.31
2022-10-17T05:32:11.095Z,101221.75
2022-10-17T05:35:35.969Z,101213.00
2022-10-17T05:39:04.997Z,101206.19
2022-10-17T05:42:30.166Z,101207.28
2022-10-17T05:45:55.983Z,101207.56
2022-10-17T05:49:32.237Z,101207.34
2022-10-17T05:53:03.003Z,101208.13
2022-10-17T05:56:32.996Z,101208.72
2022-10-17T06:00:16.995Z,101214.19
2022-10-17T06:03:48.007Z,101207.63
2022-10-17T06:07:11.993Z,101215.25
2022-10-17T06:10:28.054Z,101201.09
2022-10-17T06:13:52.017Z,101177.13
2022-10-17T06:17:16.981Z,101197.28
2022-10-17T06:20:45.213Z,101205.97
2022-10-17T06:24:10.985Z,101209.50
2022-10-17T06:27:34.070Z,101212.22
2022-10-17T06:30:52.571Z,101208.94
2022-10-17T06:34:10.030Z,101201.56
2022-10-17T06:37:36.559Z,101215.75
2022-10-17T06:41:02.010Z,101214.13
2022-10-17T06:44:26.023Z,101223.59
2022-10-17T06:48:08.011Z,101220.59
2022-10-17T06:51:34.051Z,101220.63
2022-10-17T06:55:00.043Z,101227.69
2022-10-17T06:58:31.016Z,101225.19
2022-10-17T07:01:58.043Z,101233.38
2022-10-17T07:05:21.999Z,101244.78
2022-10-17T07:08:45.040Z,101244.78
2022-10-17T07:12:10.002Z,101243.94
2022-10-17T07:15:36.039Z,101250.22
2022-10-17T07:19:05.012Z,101246.09
2022-10-17T07:22:23.051Z,101248.88
2022-10-17T07:25:49.038Z,101243.41
2022-10-17T07:29:15.045Z,101246.09
2022-10-17T07:33:04.327Z,101240.91
2022-10-17T07:36:23.023Z,101245.25
2022-10-17T07:39:49.033Z,101244.91
2022-10-17T07:43:13.047Z,101246.56
2022-10-17T07:46:37.027Z,101254.41
2022-10-17T07:50:01.041Z,101253.34
2022-10-17T07:53:24.027Z,101250.88
2022-10-17T07:56:49.052Z,101258.47
2022-10-17T08:00:12.036Z,101273.69
2022-10-17T08:03:28.043Z,101268.84
2022-10-17T08:06:56.379Z,101265.13
2022-10-17T08:10:28.024Z,101263.69
2022-10-17T08:13:52.060Z,101267.44
2022-10-17T08:17:17.082Z,101260.66
2022-10-17T08:20:41.018Z,101251.44
2022-10-17T08:24:04.104Z,101246.91
2022-10-17T08:27:32.015Z,101240.81
2022-10-17T08:30:56.085Z,101257.00
2022-10-17T08:34:13.693Z,101253.53
2022-10-17T08:37:32.361Z,101242.72
2022-10-17T08:40:57.053Z,101249.78
2022-10-17T08:44:26.133Z,101243.53
2022-10-17T08:47:53.049Z,101250.38
2022-10-17T08:51:43.114Z,101249.50
2022-10-17T08:55:08.120Z,101245.63
2022-10-17T08:58:43.056Z,101263.97
2022-10-17T09:02:40.141Z,101258.31
2022-10-17T09:06:16.068Z,101257.25
2022-10-17T09:09:57.112Z,101262.91
2022-10-17T09:17:26.211Z,101264.47
2022-10-17T09:21:02.023Z,101272.94
2022-10-17T09:24:53.094Z,101261.03
2022-10-17T09:28:50.137Z,101264.56
2022-10-17T09:32:19.060Z,101271.75
2022-10-17T09:35:44.115Z,101256.34
2022-10-17T09:39:14.079Z,101250.47
2022-10-17T09:42:40.127Z,101253.44
2022-10-17T09:46:45.077Z,101243.59
2022-10-17T09:50:08.165Z,101240.44
2022-10-17T09:53:50.076Z,101240.53
2022-10-17T09:57:17.115Z,101230.50
2022-10-17T10:00:46.156Z,101227.84
2022-10-17T10:04:27.543Z,101233.81
2022-10-17T10:07:55.109Z,101225.63
2022-10-17T10:11:22.099Z,101212.53
2022-10-17T10:14:54.702Z,101222.13
2022-10-17T10:18:23.146Z,101214.78
2022-10-17T10:21:47.203Z,101207.84
2022-10-17T10:25:42.088Z,101199.34
2022-10-17T10:29:19.097Z,101205.09
2022-10-17T10:32:45.100Z,101198.72
2022-10-17T10:36:09.369Z,101195.25
2022-10-17T10:39:50.128Z,101197.81
2022-10-17T10:43:15.099Z,101201.03
2022-10-17T10:46:41.127Z,101189.25
2022-10-17T10:50:06.105Z,101191.31
2022-10-17T10:53:53.170Z,101187.59
2022-10-17T10:57:20.110Z,101178.81
2022-10-17T11:00:45.184Z,101186.50
2022-10-17T11:04:23.106Z,101177.41
2022-10-17T11:08:15.107Z,101168.44
2022-10-17T11:11:47.114Z,101174.56
2022-10-17T11:15:33.154Z,101176.88
2022-10-17T11:19:22.082Z,101178.53
2022-10-17T11:22:49.262Z,101176.19
2022-10-17T11:26:18.091Z,101170.53
2022-10-17T11:29:51.132Z,101164.22
2022-10-17T11:33:17.152Z,101167.78
2022-10-17T11:36:39.685Z,101157.16
2022-10-17T11:40:05.193Z,101152.28
2022-10-17T11:44:00.155Z,101148.91
2022-10-17T11:47:32.164Z,101154.16
2022-10-17T11:55:13.173Z,101150.66
2022-10-17T11:58:38.312Z,101138.13
2022-10-17T12:02:10.175Z,101131.56
2022-10-17T12:05:42.150Z,101124.03
2022-10-17T12:09:18.160Z,101119.38
2022-10-17T12:12:46.155Z,101117.53
2022-10-17T12:16:13.563Z,101127.69
2022-10-17T12:19:42.146Z,101128.66
2022-10-17T12:23:14.181Z,101114.06
2022-10-17T12:26:44.165Z,101106.25
2022-10-17T12:30:15.174Z,101112.72
2022-10-17T12:33:54.116Z,101116.03
2022-10-17T12:37:18.131Z,101116.03
2022-10-17T12:40:50.162Z,101124.03
2022-10-17T12:44:14.585Z,101111.03
2022-10-17T12:47:53.143Z,101101.84
2022-10-17T12:51:37.609Z,101096.03
2022-10-17T12:55:21.121Z,101100.13
2022-10-17T12:58:44.218Z,101095.19
2022-10-17T13:02:11.152Z,101090.34
2022-10-17T13:05:49.155Z,101087.00
2022-10-17T13:09:16.169Z,101081.00
2022-10-17T13:12:41.428Z,101084.97
2022-10-17T13:16:07.164Z,101073.78
2022-10-17T13:19:34.226Z,101069.75
2022-10-17T13:23:00.203Z,101072.22
2022-10-17T13:26:29.181Z,101079.28
2022-10-17T13:29:59.220Z,101066.53
2022-10-17T13:33:44.218Z,101064.31
2022-10-17T13:37:16.193Z,101049.72
2022-10-17T13:40:50.472Z,101037.31
2022-10-17T13:44:17.195Z,101038.06
2022-10-17T13:47:48.221Z,101044.06
2022-10-17T13:51:14.147Z,101030.47
2022-10-17T13:54:51.225Z,101032.38
2022-10-17T13:58:31.210Z,101029.63
2022-10-17T14:01:58.225Z,101030.63
2022-10-17T14:05:24.203Z,101029.88
2022-10-17T14:08:49.223Z,101030.81
2022-10-17T14:12:34.183Z,101029.44
2022-10-17T14:16:00.224Z,101033.28
2022-10-17T14:19:42.200Z,101029.88
2022-10-17T14:23:23.331Z,101018.16
2022-10-17T14:26:47.227Z,101017.38
2022-10-17T14:30:13.195Z,101010.91
2022-10-17T14:33:50.447Z,101023.63
2022-10-17T14:37:15.214Z,101025.25
2022-10-17T14:40:41.236Z,101018.75
2022-10-17T14:44:09.841Z,101016.97
2022-10-17T14:47:48.642Z,101008.75
2022-10-17T14:51:32.458Z,101002.88
2022-10-17T14:55:06.220Z,100998.41
2022-10-17T14:58:42.213Z,100996.66
2022-10-17T15:02:06.238Z,101004.97
2022-10-17T15:05:31.218Z,100985.88
2022-10-17T15:08:55.257Z,100999.78
2022-10-17T15:12:22.224Z,100992.69
2022-10-17T15:15:45.226Z,101010.09
2022-10-17T15:19:09.194Z,100999.00
2022-10-17T15:22:32.759Z,100996.41
2022-10-17T15:25:58.188Z,100997.47
2022-10-17T15:29:21.364Z,100989.91
2022-10-17T15:32:45.226Z,100993.34
2022-10-17T15:36:09.262Z,101002.78
2022-10-17T15:39:32.221Z,100998.44
2022-10-17T15:42:55.274Z,100991.72
2022-10-17T15:46:12.903Z,100992.25
2022-10-17T15:49:31.268Z,100988.81
2022-10-17T15:52:55.196Z,101005.50
2022-10-17T15:56:20.260Z,101004.22
2022-10-17T15:59:48.227Z,101001.66
2022-10-17T16:03:13.318Z,101003.44
2022-10-17T16:06:38.290Z,101003.44
2022-10-17T16:10:02.291Z,101000.34
2022-10-17T16:13:37.316Z,100987.69
2022-10-17T16:17:01.247Z,100998.00
2022-10-17T16:20:29.290Z,100998.41
2022-10-17T16:23:53.238Z,101001.28
2022-10-17T16:27:16.249Z,101004.50
2022-10-17T16:30:42.375Z,101003.69
2022-10-17T16:34:07.259Z,100998.41
2022-10-17T16:37:30.241Z,100997.00
2022-10-17T16:40:54.269Z,101005.94
2022-10-17T16:44:24.281Z,101010.25
2022-10-17T16:47:48.280Z,101014.88
2022-10-17T16:51:12.287Z,101015.13
2022-10-17T16:54:35.265Z,101013.00
2022-10-17T16:57:59.282Z,101029.81
2022-10-17T17:01:25.227Z,101024.41
2022-10-17T17:04:49.323Z,101026.53
2022-10-17T17:08:13.367Z,101032.78
2022-10-17T17:11:40.354Z,101033.69
2022-10-17T17:15:04.269Z,101034.81
2022-10-17T17:18:28.314Z,101051.63
2022-10-17T17:22:01.266Z,101051.22
2022-10-17T17:25:25.311Z,101045.22
2022-10-17T17:28:50.278Z,101054.47
2022-10-17T17:32:13.311Z,101056.34
2022-10-17T17:35:37.249Z,101056.53
2022-10-17T17:39:00.317Z,101056.84
2022-10-17T17:42:24.243Z,101057.94
2022-10-17T17:45:50.319Z,101062.25
2022-10-17T17:49:15.278Z,101059.06
2022-10-17T17:52:38.277Z,101072.31
2022-10-17T17:56:02.235Z,101071.75
2022-10-17T17:59:26.319Z,101071.66
2022-10-17T18:02:51.285Z,101070.94
2022-10-17T18:06:14.323Z,101075.03
2022-10-17T18:09:38.283Z,101077.81
2022-10-17T18:13:02.279Z,101089.19
2022-10-17T18:16:26.274Z,101092.22
2022-10-17T18:19:50.323Z,101099.66
2022-10-17T18:23:14.313Z,101090.53
2022-10-17T18:26:38.375Z,101103.84
2022-10-17T18:30:02.315Z,101105.41
2022-10-17T18:33:26.281Z,101096.91
2022-10-17T18:36:50.318Z,101095.25
2022-10-17T18:40:14.292Z,101097.78
2022-10-17T18:43:37.317Z,101106.31
2022-10-17T18:47:04.059Z,101103.78
2022-10-17T18:50:29.319Z,101108.88
2022-10-17T18:53:51.336Z,101109.50
2022-10-17T18:57:15.282Z,101118.28
2022-10-17T19:00:39.428Z,101125.38
2022-10-17T19:04:07.260Z,101130.44
2022-10-17T19:07:31.644Z,101125.09
2022-10-17T19:10:55.281Z,101122.63
2022-10-17T19:14:23.351Z,101133.84
2022-10-17T19:17:46.278Z,101128.91
2022-10-17T19:21:10.329Z,101135.00
2022-10-17T19:24:39.312Z,101144.97
2022-10-17T19:28:03.314Z,101153.16
2022-10-17T19:31:28.324Z,101142.13
2022-10-17T19:34:52.332Z,101144.25
2022-10-17T19:38:15.334Z,101149.59
2022-10-17T19:42:01.800Z,101159.56
2022-10-17T19:45:27.366Z,101157.94
2022-10-17T19:48:53.347Z,101160.13
2022-10-17T19:52:10.315Z,101152.34
2022-10-17T19:55:34.353Z,101155.19
2022-10-17T19:58:58.307Z,101157.16
2022-10-17T20:02:21.375Z,101157.09
2022-10-17T20:05:39.370Z,101152.59
2022-10-17T20:09:02.349Z,101158.25
2022-10-17T20:12:25.356Z,101151.47
2022-10-17T20:15:49.484Z,101154.25
2022-10-17T20:19:17.365Z,101155.63
2022-10-17T20:22:40.308Z,101158.59
2022-10-17T20:26:26.386Z,101164.19
2022-10-17T20:29:56.351Z,101147.19
2022-10-17T20:33:21.341Z,101165.66
2022-10-17T20:36:45.309Z,101144.91
2022-10-17T20:40:36.092Z,101155.34
2022-10-17T20:43:53.380Z,101152.63
2022-10-17T20:47:16.200Z,101158.50
2022-10-17T20:50:45.342Z,101154.63
2022-10-17T20:54:10.364Z,101157.84
2022-10-17T20:57:34.432Z,101162.81
2022-10-17T21:00:57.323Z,101167.91
2022-10-17T21:04:44.944Z,101154.44
2022-10-17T21:08:05.349Z,101159.56
2022-10-17T21:11:32.319Z,101157.66
2022-10-17T21:14:55.390Z,101170.50
2022-10-17T21:18:18.377Z,101162.56
2022-10-17T21:21:44.364Z,101158.59
2022-10-17T21:25:08.373Z,101161.56
2022-10-17T21:28:32.392Z,101156.38
2022-10-17T21:31:57.386Z,101156.69
2022-10-17T21:35:21.356Z,101165.47
2022-10-17T21:38:45.387Z,101164.78
2022-10-17T21:42:08.498Z,101164.81
2022-10-17T21:45:32.342Z,101160.19
2022-10-17T21:48:56.410Z,101158.84
2022-10-17T21:52:20.337Z,101159.63
2022-10-17T21:55:44.357Z,101160.06
2022-10-17T21:59:08.424Z,101151.31
2022-10-17T22:02:32.827Z,101165.38
2022-10-17T22:06:07.057Z,101164.88
2022-10-17T22:09:41.370Z,101156.53
2022-10-17T22:13:04.355Z,101167.19
2022-10-17T22:16:31.475Z,101150.25
2022-10-17T22:19:54.399Z,101155.94
2022-10-17T22:23:18.378Z,101169.38
2022-10-17T22:26:43.429Z,101170.16
2022-10-17T22:30:07.381Z,101165.25
2022-10-17T22:33:32.436Z,101169.53
2022-10-17T22:36:56.413Z,101159.75
2022-10-17T22:40:21.348Z,101174.50
2022-10-17T22:43:46.402Z,101164.09
2022-10-17T22:47:10.361Z,101158.88
2022-10-17T22:50:34.475Z,101167.88
2022-10-17T22:53:58.395Z,101163.75
2022-10-17T22:57:21.416Z,101167.34
2022-10-17T23:00:45.408Z,101170.63
2022-10-17T23:04:09.415Z,101167.97
2022-10-17T23:07:33.400Z,101175.91
2022-10-17T23:10:57.383Z,101165.69
2022-10-17T23:14:21.409Z,101174.28
2022-10-17T23:17:45.420Z,101156.84
2022-10-17T23:21:09.444Z,101163.06
2022-10-17T23:24:32.425Z,101162.16
2022-10-17T23:27:56.451Z,101160.28
2022-10-17T23:31:29.429Z,101157.44
2022-10-17T23:34:53.392Z,101156.13
2022-10-17T23:38:16.384Z,101162.59
2022-10-17T23:41:39.469Z,101152.25
2022-10-17T23:45:03.436Z,101141.31
2022-10-17T23:48:27.398Z,101168.56
2022-10-17T23:51:51.425Z,101151.81
2022-10-17T23:55:15.459Z,101148.44
2022-10-17T23:58:39.421Z,101148.75
